createdAt,value
2024-01-24T00:00:08.851Z,1.70
2024-01-24T00:05:40.251Z,1.71
2024-01-24T00:10:46.039Z,1.71
2024-01-24T00:15:52.464Z,1.64
2024-01-24T00:20:58.384Z,1.52
2024-01-24T00:26:04.549Z,1.43
2024-01-24T00:31:10.305Z,1.40
2024-01-24T00:36:16.017Z,1.40
2024-01-24T00:41:21.923Z,1.38
2024-01-24T00:46:27.760Z,1.37
2024-01-24T00:51:33.643Z,1.42
2024-01-24T00:56:41.240Z,1.53
2024-01-24T01:01:46.751Z,1.57
2024-01-24T01:06:52.568Z,1.63
2024-01-24T01:11:59.242Z,1.73
2024-01-24T01:17:06.238Z,1.76
2024-01-24T01:22:13.089Z,1.74
2024-01-24T01:27:19.536Z,1.78
2024-01-24T01:32:25.769Z,1.87
2024-01-24T01:37:32.101Z,1.96
2024-01-24T01:42:43.949Z,1.98
2024-01-24T01:47:52.418Z,1.99
2024-01-24T01:52:58.975Z,2.00
2024-01-24T01:58:05.857Z,1.95
2024-01-24T02:03:12.379Z,1.86
2024-01-24T02:08:18.216Z,1.80
2024-01-24T02:13:28.265Z,1.81
2024-01-24T02:18:34.363Z,1.83
2024-01-24T02:23:41.104Z,1.85
2024-01-24T02:28:46.665Z,1.86
2024-01-24T02:33:53.085Z,1.90
2024-01-24T02:38:59.616Z,1.96
2024-01-24T02:44:05.577Z,1.97
2024-01-24T02:49:12.019Z,1.89
2024-01-24T02:54:17.895Z,1.78
2024-01-24T02:59:23.825Z,1.73
2024-01-24T03:04:29.556Z,1.75
2024-01-24T03:09:35.837Z,1.78
2024-01-24T03:14:41.662Z,1.73
2024-01-24T03:19:47.649Z,1.63
2024-01-24T03:24:54.052Z,1.56
2024-01-24T03:30:00.581Z,1.55
2024-01-24T03:35:08.537Z,1.54
2024-01-24T03:40:14.774Z,1.51
2024-01-24T03:45:20.585Z,1.51
2024-01-24T03:50:26.920Z,1.55
2024-01-24T03:55:33.000Z,1.57
2024-01-24T04:00:38.775Z,1.59
2024-01-24T04:05:44.853Z,1.67
2024-01-24T04:10:50.689Z,1.76
2024-01-24T04:15:56.608Z,1.83
2024-01-24T04:21:03.166Z,1.85
2024-01-24T04:26:09.916Z,1.87
2024-01-24T04:31:15.853Z,1.93
2024-01-24T04:36:21.969Z,1.93
2024-01-24T04:41:27.983Z,1.91
2024-01-24T04:46:33.939Z,1.93
2024-01-24T04:51:39.847Z,1.99
2024-01-24T04:56:48.124Z,2.06
2024-01-24T05:01:54.705Z,2.10
2024-01-24T05:07:00.243Z,2.12
2024-01-24T05:12:07.125Z,2.14
2024-01-24T05:17:13.105Z,2.17
2024-01-24T05:22:19.869Z,2.16
2024-01-24T05:27:25.852Z,2.13
2024-01-24T05:32:33.042Z,2.10
2024-01-24T05:37:39.696Z,2.14
2024-01-24T05:42:45.769Z,2.22
2024-01-24T05:47:51.475Z,2.27
2024-01-24T05:52:58.297Z,2.27
2024-01-24T05:58:06.952Z,2.30
2024-01-24T06:03:12.931Z,2.39
2024-01-24T06:08:42.421Z,2.48
2024-01-24T06:20:13.603Z,2.62
2024-01-24T06:25:21.641Z,2.70
2024-01-24T06:30:31.107Z,2.73
2024-01-24T06:35:40.035Z,2.66
2024-01-24T06:40:47.483Z,2.49
2024-01-24T06:45:53.817Z,2.24
2024-01-24T06:50:59.718Z,2.01
2024-01-24T06:56:07.509Z,1.69
2024-01-24T07:01:16.313Z,1.38
2024-01-24T07:06:28.019Z,1.17
2024-01-24T07:11:35.431Z,0.97
2024-01-24T07:16:45.224Z,0.80
2024-01-24T07:21:52.403Z,0.75
2024-01-24T07:26:58.073Z,0.72
2024-01-24T07:32:04.825Z,0.77
2024-01-24T07:37:10.931Z,0.86
2024-01-24T07:42:48.517Z,0.95
2024-01-24T07:47:55.117Z,1.07
2024-01-24T07:53:00.823Z,1.16
2024-01-24T07:58:06.901Z,1.29
2024-01-24T08:03:14.278Z,1.43
2024-01-24T08:08:20.584Z,1.52
2024-01-24T08:13:26.311Z,1.64
2024-01-24T08:18:33.548Z,1.74
2024-01-24T08:23:46.901Z,1.82
2024-01-24T08:29:01.969Z,1.90
2024-01-24T08:34:08.568Z,1.96
2024-01-24T08:39:16.081Z,2.02
2024-01-24T08:44:22.018Z,2.03
2024-01-24T08:49:27.860Z,2.06
2024-01-24T08:54:34.969Z,2.11
2024-01-24T08:59:43.142Z,2.14
2024-01-24T09:04:51.511Z,2.19
2024-01-24T09:09:57.330Z,2.25
2024-01-24T09:15:04.826Z,2.35
2024-01-24T09:20:11.829Z,2.42
2024-01-24T09:25:21.350Z,2.46
2024-01-24T09:30:29.176Z,2.52
2024-01-24T09:35:35.457Z,2.58
2024-01-24T09:40:41.732Z,2.62
2024-01-24T09:45:50.559Z,2.65
2024-01-24T09:50:56.835Z,2.73
2024-01-24T09:56:04.316Z,2.81
2024-01-24T10:01:16.055Z,2.88
2024-01-24T10:06:23.425Z,2.98
2024-01-24T10:11:29.899Z,3.07
2024-01-24T10:16:37.384Z,3.13
2024-01-24T10:21:44.007Z,3.25
2024-01-24T10:26:49.892Z,3.39
2024-01-24T10:31:57.967Z,3.52
2024-01-24T10:37:05.280Z,3.66
2024-01-24T10:42:19.151Z,3.84
2024-01-24T10:47:25.900Z,3.98
2024-01-24T10:52:33.088Z,4.12
2024-01-24T10:57:41.454Z,4.25
2024-01-24T11:02:47.702Z,4.41
2024-01-24T11:08:02.632Z,4.59
2024-01-24T11:13:11.729Z,4.72
2024-01-24T11:18:32.216Z,4.80
2024-01-24T11:23:48.756Z,4.90
2024-01-24T11:29:06.972Z,4.99
2024-01-24T11:34:14.059Z,5.05
2024-01-24T11:39:36.006Z,5.10
2024-01-24T11:44:43.269Z,5.15
2024-01-24T11:49:52.669Z,5.25
2024-01-24T11:55:08.926Z,5.40
2024-01-24T12:00:17.161Z,5.54
2024-01-24T12:05:24.065Z,5.66
2024-01-24T12:10:31.677Z,5.85
2024-01-24T12:15:38.818Z,6.22
2024-01-24T12:20:56.794Z,6.48
2024-01-24T12:26:06.918Z,6.78
2024-01-24T12:31:13.617Z,7.02
2024-01-24T12:36:20.317Z,7.15
2024-01-24T12:41:26.467Z,7.21
2024-01-24T12:46:33.925Z,7.23
2024-01-24T12:51:41.673Z,7.36
2024-01-24T12:56:51.899Z,7.51
2024-01-24T13:01:59.184Z,7.50
2024-01-24T13:07:07.938Z,7.47
2024-01-24T13:12:14.127Z,7.44
2024-01-24T13:17:20.885Z,7.38
2024-01-24T13:22:27.287Z,7.42
2024-01-24T13:27:33.315Z,7.35
2024-01-24T13:32:43.186Z,7.21
2024-01-24T13:37:48.754Z,7.01
2024-01-24T13:42:54.645Z,6.89
2024-01-24T13:48:02.827Z,6.87
2024-01-24T13:53:15.899Z,6.93
2024-01-24T13:58:22.426Z,6.94
2024-01-24T14:03:28.320Z,6.94
2024-01-24T14:08:38.688Z,6.94
2024-01-24T14:13:50.740Z,6.93
2024-01-24T14:18:57.667Z,6.88
2024-01-24T14:24:04.449Z,6.80
2024-01-24T14:29:10.215Z,6.71
2024-01-24T14:34:16.621Z,6.61
2024-01-24T14:39:23.252Z,6.47
2024-01-24T14:44:28.933Z,6.34
2024-01-24T14:49:35.505Z,6.24
2024-01-24T14:54:41.926Z,6.11
2024-01-24T14:59:47.705Z,6.01
2024-01-24T15:04:55.429Z,5.92
2024-01-24T15:10:01.188Z,5.83
2024-01-24T15:15:09.084Z,5.77
2024-01-24T15:20:15.419Z,5.72
2024-01-24T15:25:21.541Z,5.72
2024-01-24T15:30:27.302Z,5.70
2024-01-24T15:35:33.049Z,5.75
2024-01-24T15:40:38.764Z,5.82
2024-01-24T15:45:44.563Z,5.84
2024-01-24T15:50:50.600Z,5.79
2024-01-24T15:55:56.762Z,5.75
2024-01-24T16:01:02.447Z,5.79
2024-01-24T16:06:08.670Z,5.86
2024-01-24T16:11:14.867Z,5.92
2024-01-24T16:16:20.963Z,5.98
2024-01-24T16:21:27.239Z,6.01
2024-01-24T16:26:32.816Z,6.07
2024-01-24T16:31:38.634Z,6.09
2024-01-24T16:36:44.228Z,6.10
2024-01-24T16:41:50.233Z,6.12
2024-01-24T16:46:55.744Z,6.10
2024-01-24T16:52:03.043Z,6.05
2024-01-24T16:57:08.769Z,5.98
2024-01-24T17:02:14.401Z,5.99
2024-01-24T17:07:23.114Z,6.03
2024-01-24T17:12:30.725Z,6.09
2024-01-24T17:17:37.668Z,6.16
2024-01-24T17:22:44.002Z,6.16
2024-01-24T17:27:50.234Z,6.13
2024-01-24T17:32:59.119Z,6.08
2024-01-24T17:38:06.844Z,6.03
2024-01-24T17:43:12.771Z,5.97
2024-01-24T17:48:18.729Z,5.94
2024-01-24T17:53:24.755Z,5.93
2024-01-24T17:58:33.709Z,5.94
2024-01-24T18:03:41.233Z,5.95
2024-01-24T18:08:47.252Z,5.94
2024-01-24T18:13:53.013Z,5.95
2024-01-24T18:18:58.991Z,5.96
2024-01-24T18:24:05.997Z,5.98
2024-01-24T18:29:12.179Z,6.00
2024-01-24T18:34:20.238Z,6.04
2024-01-24T18:39:26.347Z,6.05
2024-01-24T18:44:32.414Z,6.08
2024-01-24T18:49:38.205Z,6.08
2024-01-24T18:54:44.068Z,6.05
2024-01-24T18:59:50.407Z,6.02
2024-01-24T19:10:47.679Z,6.03
2024-01-24T19:15:53.874Z,6.01
2024-01-24T19:21:00.431Z,5.98
2024-01-24T19:26:06.436Z,5.93
2024-01-24T19:31:11.980Z,5.90
2024-01-24T19:36:17.795Z,5.90
2024-01-24T19:41:24.112Z,5.87
2024-01-24T19:46:30.374Z,5.84
2024-01-24T19:51:39.027Z,5.84
2024-01-24T19:56:45.634Z,5.84
2024-01-24T20:01:51.514Z,5.85
2024-01-24T20:06:57.716Z,5.88
2024-01-24T20:12:04.473Z,5.88
2024-01-24T20:17:10.106Z,5.87
2024-01-24T20:22:16.878Z,5.88
2024-01-24T20:27:22.591Z,5.91
2024-01-24T20:32:28.131Z,5.96
2024-01-24T20:37:33.714Z,6.00
2024-01-24T20:42:39.529Z,6.05
2024-01-24T20:47:45.168Z,6.06
2024-01-24T20:52:51.557Z,6.03
2024-01-24T20:57:57.910Z,5.98
2024-01-24T21:03:04.824Z,5.96
2024-01-24T21:08:11.437Z,5.92
2024-01-24T21:13:17.914Z,5.89
2024-01-24T21:18:24.618Z,5.85
2024-01-24T21:23:31.469Z,5.82
2024-01-24T21:28:37.916Z,5.81
2024-01-24T21:33:43.674Z,5.78
2024-01-24T21:38:50.966Z,5.75
2024-01-24T21:43:57.411Z,5.73
2024-01-24T21:49:03.698Z,5.71
2024-01-24T21:54:09.497Z,5.69
2024-01-24T21:59:15.100Z,5.70
2024-01-24T22:04:21.172Z,5.70
2024-01-24T22:09:26.816Z,5.69
2024-01-24T22:14:32.553Z,5.70
2024-01-24T22:19:38.440Z,5.73
2024-01-24T22:24:44.170Z,5.75
2024-01-24T22:29:50.141Z,5.76
2024-01-24T22:34:55.954Z,5.77
2024-01-24T22:40:02.328Z,5.79
2024-01-24T22:45:11.769Z,5.81
2024-01-24T22:50:20.756Z,5.80
2024-01-24T22:55:27.051Z,5.79
2024-01-24T23:00:32.894Z,5.79
2024-01-24T23:05:38.603Z,5.79
2024-01-24T23:10:44.258Z,5.79
2024-01-24T23:15:51.159Z,5.78
2024-01-24T23:20:56.978Z,5.77
2024-01-24T23:26:02.555Z,5.76
2024-01-24T23:31:08.754Z,5.73
2024-01-24T23:36:14.731Z,5.68
2024-01-24T23:41:20.361Z,5.66
2024-01-24T23:46:26.095Z,5.63
2024-01-24T23:51:35.404Z,5.64
2024-01-24T23:56:41.896Z,5.65
